createdAt,value
2019-05-29T00:00:26.625Z,42.37
2019-05-29T00:02:53.563Z,42.67
2019-05-29T00:05:20.459Z,43.26
2019-05-29T00:07:47.394Z,43.78
2019-05-29T00:10:14.437Z,44.04
2019-05-29T00:12:42.529Z,44.28
2019-05-29T00:15:10.393Z,44.45
2019-05-29T00:17:37.614Z,44.55
2019-05-29T00:20:04.751Z,44.69
2019-05-29T00:22:35.277Z,44.74
2019-05-29T00:25:02.410Z,44.92
2019-05-29T00:27:29.529Z,45.01
2019-05-29T00:29:57.584Z,44.83
2019-05-29T00:32:24.533Z,44.85
2019-05-29T00:34:51.393Z,44.77
2019-05-29T00:37:18.360Z,44.69
2019-05-29T00:39:45.325Z,44.66
2019-05-29T00:42:13.253Z,44.40
2019-05-29T00:44:41.180Z,44.31
2019-05-29T00:47:08.053Z,44.22
2019-05-29T00:49:36.989Z,44.28
2019-05-29T00:52:05.321Z,44.24
2019-05-29T00:54:33.339Z,44.19
2019-05-29T00:57:01.638Z,44.36
2019-05-29T00:59:28.501Z,44.17
2019-05-29T01:01:55.407Z,44.36
2019-05-29T01:04:22.595Z,44.35
2019-05-29T01:06:49.495Z,44.05
2019-05-29T01:09:16.510Z,44.08
2019-05-29T01:11:43.536Z,43.85
2019-05-29T01:14:11.038Z,43.80
2019-05-29T01:16:38.064Z,43.72
2019-05-29T01:19:04.944Z,43.95
2019-05-29T01:21:31.912Z,43.83
2019-05-29T01:23:58.860Z,43.92
2019-05-29T01:26:25.734Z,43.96
2019-05-29T01:28:52.591Z,43.92
2019-05-29T01:31:19.473Z,44.17
2019-05-29T01:33:46.423Z,44.09
2019-05-29T01:36:13.846Z,43.91
2019-05-29T01:38:40.806Z,43.86
2019-05-29T01:41:08.094Z,43.68
2019-05-29T01:43:34.968Z,43.69
2019-05-29T01:46:01.855Z,43.76
2019-05-29T01:48:29.170Z,43.80
2019-05-29T01:50:57.244Z,43.80
2019-05-29T01:53:24.121Z,43.66
2019-05-29T01:55:50.993Z,43.63
2019-05-29T01:58:18.038Z,43.56
2019-05-29T02:00:45.039Z,43.49
2019-05-29T02:03:11.992Z,43.21
2019-05-29T02:05:40.213Z,43.38
2019-05-29T02:08:07.091Z,43.64
2019-05-29T02:10:33.973Z,43.52
2019-05-29T02:13:00.870Z,43.25
2019-05-29T02:15:33.503Z,43.21
2019-05-29T02:17:57.712Z,43.35
2019-05-29T02:20:25.213Z,43.20
2019-05-29T02:22:52.297Z,42.68
2019-05-29T02:25:19.671Z,42.53
2019-05-29T02:27:47.645Z,42.44
2019-05-29T02:30:14.582Z,41.96
2019-05-29T02:32:41.549Z,42.16
2019-05-29T02:35:10.068Z,41.87
2019-05-29T02:37:37.113Z,41.51
2019-05-29T02:40:04.065Z,41.39
2019-05-29T02:42:30.978Z,41.34
2019-05-29T02:44:57.918Z,41.52
2019-05-29T02:47:26.016Z,41.37
2019-05-29T02:49:53.457Z,41.09
2019-05-29T02:52:21.850Z,41.27
2019-05-29T02:54:48.947Z,41.55
2019-05-29T02:57:15.819Z,41.26
2019-05-29T02:59:43.073Z,41.27
2019-05-29T03:02:10.018Z,41.23
2019-05-29T03:04:37.006Z,41.28
2019-05-29T03:07:03.960Z,41.20
2019-05-29T03:09:32.502Z,41.01
2019-05-29T03:12:00.393Z,40.84
2019-05-29T03:14:29.456Z,40.79
2019-05-29T03:16:56.174Z,40.83
2019-05-29T03:19:23.900Z,41.00
2019-05-29T03:21:50.876Z,41.29
2019-05-29T03:24:17.764Z,41.17
2019-05-29T03:26:44.627Z,41.13
2019-05-29T03:29:11.506Z,41.04
2019-05-29T03:31:46.618Z,40.82
2019-05-29T03:34:07.053Z,40.84
2019-05-29T03:36:41.555Z,40.82
2019-05-29T03:39:02.569Z,40.98
2019-05-29T03:41:30.587Z,40.92
2019-05-29T03:43:59.136Z,41.12
2019-05-29T03:46:34.202Z,41.60
2019-05-29T03:48:54.589Z,41.27
2019-05-29T03:51:21.520Z,41.07
2019-05-29T03:53:48.434Z,40.91
2019-05-29T03:56:15.382Z,40.58
2019-05-29T03:58:42.344Z,40.69
2019-05-29T04:01:09.303Z,40.80
2019-05-29T04:03:38.255Z,40.90
2019-05-29T04:06:04.825Z,41.09
2019-05-29T04:08:33.465Z,40.87
2019-05-29T04:11:00.547Z,40.65
2019-05-29T04:13:29.470Z,40.51
2019-05-29T04:15:56.582Z,40.76
2019-05-29T04:18:23.519Z,40.92
2019-05-29T04:20:50.462Z,40.92
2019-05-29T04:23:17.343Z,40.66
2019-05-29T04:25:44.304Z,40.42
2019-05-29T04:28:11.527Z,40.67
2019-05-29T04:30:39.245Z,40.35
2019-05-29T04:33:06.352Z,40.32
2019-05-29T04:35:34.647Z,40.19
2019-05-29T04:38:01.709Z,39.91
2019-05-29T04:40:28.854Z,39.75
2019-05-29T04:42:57.227Z,39.73
2019-05-29T04:45:24.194Z,39.38
2019-05-29T04:47:51.150Z,39.54
2019-05-29T04:50:18.113Z,39.86
2019-05-29T04:52:45.057Z,39.53
2019-05-29T04:55:11.942Z,39.61
2019-05-29T04:57:39.952Z,39.73
2019-05-29T05:00:06.962Z,39.65
2019-05-29T05:02:35.027Z,39.21
2019-05-29T05:05:02.097Z,39.07
2019-05-29T05:07:31.093Z,39.17
2019-05-29T05:09:58.081Z,39.05
2019-05-29T05:12:24.967Z,39.48
2019-05-29T05:14:51.945Z,39.50
2019-05-29T05:17:26.040Z,39.04
2019-05-29T05:19:47.496Z,39.18
2019-05-29T05:22:14.774Z,38.78
2019-05-29T05:24:43.939Z,39.03
2019-05-29T05:27:10.216Z,39.01
2019-05-29T05:29:38.123Z,38.79
2019-05-29T05:32:05.432Z,38.30
2019-05-29T05:34:32.618Z,38.18
2019-05-29T05:37:00.734Z,38.10
2019-05-29T05:39:27.603Z,37.72
2019-05-29T05:41:54.565Z,37.69
2019-05-29T05:44:21.808Z,37.29
2019-05-29T05:46:48.677Z,37.26
2019-05-29T05:49:15.539Z,36.98
2019-05-29T05:51:44.561Z,37.16
2019-05-29T05:54:11.027Z,37.58
2019-05-29T05:56:37.995Z,37.48
2019-05-29T05:59:05.030Z,37.37
2019-05-29T06:01:31.982Z,37.21
2019-05-29T06:03:58.868Z,36.92
2019-05-29T06:06:25.871Z,36.75
2019-05-29T06:08:52.738Z,36.80
2019-05-29T06:11:19.961Z,36.93
2019-05-29T06:13:46.848Z,37.45
2019-05-29T06:16:13.897Z,37.50
2019-05-29T06:18:40.831Z,37.06
2019-05-29T06:21:08.045Z,36.85
2019-05-29T06:23:35.004Z,36.73
2019-05-29T06:26:01.981Z,36.54
2019-05-29T06:28:28.848Z,36.81
2019-05-29T06:30:55.784Z,36.50
2019-05-29T06:33:22.792Z,36.37
2019-05-29T06:35:49.754Z,36.73
2019-05-29T06:38:16.708Z,36.85
2019-05-29T06:40:44.056Z,36.72
2019-05-29T06:43:12.020Z,37.26
2019-05-29T06:45:39.959Z,37.03
2019-05-29T06:48:07.033Z,36.87
2019-05-29T06:50:35.207Z,36.83
2019-05-29T06:53:02.373Z,36.26
2019-05-29T06:55:29.315Z,36.45
2019-05-29T06:57:56.224Z,36.96
2019-05-29T07:00:35.043Z,36.58
2019-05-29T07:02:51.739Z,36.04
2019-05-29T07:05:18.676Z,35.76
2019-05-29T07:07:46.566Z,35.70
2019-05-29T07:10:13.605Z,34.92
2019-05-29T07:12:40.740Z,34.36
2019-05-29T07:15:07.641Z,32.89
2019-05-29T07:17:34.691Z,31.64
2019-05-29T07:20:04.130Z,30.33
2019-05-29T07:22:31.409Z,28.95
2019-05-29T07:24:58.296Z,28.11
2019-05-29T07:27:25.258Z,28.41
2019-05-29T07:29:52.196Z,28.94
2019-05-29T07:32:20.325Z,28.87
2019-05-29T07:35:02.078Z,28.81
2019-05-29T07:37:16.918Z,29.16
2019-05-29T07:39:43.804Z,29.44
2019-05-29T07:42:10.842Z,29.97
2019-05-29T07:44:38.015Z,30.05
2019-05-29T07:47:05.137Z,30.05
2019-05-29T07:49:39.180Z,30.33
2019-05-29T07:52:01.626Z,30.88
2019-05-29T07:54:28.581Z,30.86
2019-05-29T07:56:55.505Z,30.92
2019-05-29T07:59:22.396Z,31.26
2019-05-29T08:01:50.250Z,31.51
2019-05-29T08:04:17.254Z,31.63
2019-05-29T08:06:49.710Z,31.64
2019-05-29T08:09:12.700Z,31.36
2019-05-29T08:11:39.608Z,31.66
2019-05-29T08:14:06.561Z,31.90
2019-05-29T08:16:33.882Z,32.11
2019-05-29T08:19:02.011Z,31.94
2019-05-29T08:21:28.871Z,31.84
2019-05-29T08:23:55.836Z,31.27
2019-05-29T08:26:22.722Z,31.80
2019-05-29T08:28:50.939Z,32.04
2019-05-29T08:31:18.343Z,31.99
2019-05-29T08:33:45.221Z,31.23
2019-05-29T08:36:12.190Z,31.71
2019-05-29T08:38:39.120Z,32.65
2019-05-29T08:41:06.384Z,32.91
2019-05-29T08:43:33.656Z,32.31
2019-05-29T08:46:00.587Z,31.86
2019-05-29T08:48:27.561Z,31.95
2019-05-29T08:50:54.504Z,32.25
2019-05-29T08:53:21.536Z,32.33
2019-05-29T08:55:52.647Z,31.42
2019-05-29T08:58:19.789Z,30.82
2019-05-29T09:00:50.527Z,31.51
2019-05-29T09:03:15.750Z,30.49
2019-05-29T09:05:42.783Z,30.92
2019-05-29T09:08:09.683Z,31.56
2019-05-29T09:10:36.625Z,30.22
2019-05-29T09:13:05.136Z,29.13
2019-05-29T09:15:32.068Z,29.65
2019-05-29T09:17:59.033Z,30.17
2019-05-29T09:20:43.513Z,29.17
2019-05-29T09:22:54.748Z,29.62
2019-05-29T09:25:23.259Z,29.85
2019-05-29T09:27:50.261Z,30.06
2019-05-29T09:30:18.488Z,29.51
2019-05-29T09:32:51.004Z,28.36
2019-05-29T09:35:16.006Z,28.11
2019-05-29T09:37:43.328Z,28.63
2019-05-29T09:40:10.224Z,29.83
2019-05-29T09:42:37.110Z,30.14
2019-05-29T09:45:04.113Z,29.15
2019-05-29T09:47:30.974Z,29.67
2019-05-29T09:49:57.861Z,30.16
2019-05-29T09:52:24.734Z,30.59
2019-05-29T09:54:52.996Z,29.51
2019-05-29T09:57:20.493Z,29.22
2019-05-29T09:59:47.461Z,29.19
2019-05-29T10:02:14.333Z,29.20
2019-05-29T10:04:41.230Z,29.40
2019-05-29T10:07:08.180Z,30.24
2019-05-29T10:09:35.217Z,29.91
2019-05-29T10:12:06.398Z,29.67
2019-05-29T10:14:30.813Z,29.89
2019-05-29T10:16:59.256Z,29.57
2019-05-29T10:19:26.328Z,29.54
2019-05-29T10:21:54.757Z,29.51
2019-05-29T10:24:22.056Z,29.09
2019-05-29T10:26:49.034Z,29.35
2019-05-29T10:29:15.910Z,29.08
2019-05-29T10:31:45.161Z,29.54
2019-05-29T10:34:11.348Z,29.59
2019-05-29T10:36:38.248Z,29.12
2019-05-29T10:39:05.151Z,28.61
2019-05-29T10:41:32.125Z,28.51
2019-05-29T10:43:58.997Z,29.09
2019-05-29T10:46:26.049Z,29.18
2019-05-29T10:48:56.347Z,29.61
2019-05-29T10:51:21.685Z,28.95
2019-05-29T10:53:50.361Z,29.11
2019-05-29T10:56:20.781Z,30.33
2019-05-29T10:58:49.664Z,30.13
2019-05-29T11:01:14.424Z,29.45
2019-05-29T11:03:41.367Z,28.79
2019-05-29T11:06:08.334Z,28.39
2019-05-29T11:08:35.225Z,29.02
2019-05-29T11:11:02.182Z,29.25
2019-05-29T11:13:29.043Z,29.39
2019-05-29T11:15:56.908Z,29.12
2019-05-29T11:18:24.022Z,29.38
2019-05-29T11:20:51.353Z,28.75
2019-05-29T11:23:19.423Z,28.44
2019-05-29T11:25:46.331Z,29.41
2019-05-29T11:28:13.217Z,28.83
2019-05-29T11:30:40.193Z,28.96
2019-05-29T11:33:07.303Z,28.80
2019-05-29T11:35:34.287Z,28.67
2019-05-29T11:38:01.256Z,29.05
2019-05-29T11:40:28.455Z,28.93
2019-05-29T11:42:56.793Z,28.33
2019-05-29T11:45:23.922Z,28.16
2019-05-29T11:47:51.537Z,27.65
2019-05-29T11:50:20.098Z,27.70
2019-05-29T11:52:47.539Z,29.45
2019-05-29T11:55:14.468Z,28.99
2019-05-29T11:57:41.439Z,28.83
2019-05-29T12:00:19.004Z,28.24
2019-05-29T12:02:37.149Z,28.28
2019-05-29T12:05:04.098Z,27.75
2019-05-29T12:07:31.382Z,27.66
2019-05-29T12:09:59.632Z,27.92
2019-05-29T12:12:26.774Z,28.38
2019-05-29T12:15:04.897Z,28.13
2019-05-29T12:17:22.536Z,28.11
2019-05-29T12:19:49.475Z,27.80
2019-05-29T12:22:16.457Z,27.86
2019-05-29T12:24:43.397Z,27.67
2019-05-29T12:27:10.377Z,27.20
2019-05-29T12:29:37.239Z,27.73
2019-05-29T12:32:09.568Z,28.03
2019-05-29T12:34:32.798Z,27.70
2019-05-29T12:36:59.708Z,27.28
2019-05-29T12:39:26.584Z,27.10
2019-05-29T12:41:53.602Z,27.90
2019-05-29T12:44:20.488Z,27.21
2019-05-29T12:46:47.468Z,27.36
2019-05-29T12:49:14.428Z,27.08
2019-05-29T12:51:41.397Z,26.78
2019-05-29T12:54:08.261Z,26.84
2019-05-29T12:56:35.129Z,27.18
2019-05-29T12:59:02.664Z,27.92
2019-05-29T13:01:29.666Z,27.98
2019-05-29T13:03:56.728Z,27.61
2019-05-29T13:06:44.353Z,26.36
2019-05-29T13:09:11.317Z,25.74
2019-05-29T13:11:38.286Z,25.46
2019-05-29T13:14:05.553Z,26.58
2019-05-29T13:16:32.707Z,27.13
2019-05-29T13:19:00.928Z,26.80
2019-05-29T13:21:28.070Z,25.58
2019-05-29T13:23:58.928Z,26.47
2019-05-29T13:26:23.823Z,26.35
2019-05-29T13:28:50.781Z,25.99
2019-05-29T13:31:17.954Z,26.24
2019-05-29T13:33:44.816Z,26.73
2019-05-29T13:36:11.707Z,26.69
2019-05-29T13:38:38.712Z,26.69
2019-05-29T13:41:06.606Z,26.85
2019-05-29T13:43:33.768Z,26.41
2019-05-29T13:46:00.722Z,26.31
2019-05-29T13:48:27.635Z,26.29
2019-05-29T13:50:54.674Z,25.83
2019-05-29T13:53:21.713Z,25.71
2019-05-29T13:55:48.662Z,25.46
2019-05-29T13:58:15.544Z,25.81
2019-05-29T14:00:42.732Z,25.95
2019-05-29T14:03:09.679Z,25.56
2019-05-29T14:05:36.614Z,25.00
2019-05-29T14:08:04.664Z,25.61
2019-05-29T14:10:31.866Z,26.29
2019-05-29T14:12:58.940Z,26.39
2019-05-29T14:15:25.935Z,25.71
2019-05-29T14:17:52.881Z,25.24
2019-05-29T14:20:19.750Z,24.86
2019-05-29T14:22:46.636Z,24.17
2019-05-29T14:25:13.933Z,24.10
2019-05-29T14:27:41.181Z,24.36
2019-05-29T14:30:09.966Z,24.53
2019-05-29T14:32:36.701Z,24.28
2019-05-29T14:35:05.470Z,24.08
2019-05-29T14:37:32.282Z,23.82
2019-05-29T14:39:59.494Z,23.66
2019-05-29T14:42:26.445Z,24.13
2019-05-29T14:44:53.329Z,23.54
2019-05-29T14:47:20.192Z,23.76
2019-05-29T14:49:47.065Z,23.22
2019-05-29T14:52:14.051Z,23.06
2019-05-29T14:54:42.421Z,23.30
2019-05-29T14:57:22.592Z,23.89
2019-05-29T14:59:39.268Z,23.60
2019-05-29T15:02:16.271Z,23.12
2019-05-29T15:04:34.904Z,23.59
2019-05-29T15:07:01.784Z,23.86
2019-05-29T15:09:28.989Z,24.15
2019-05-29T15:11:55.937Z,24.01
2019-05-29T15:14:22.885Z,23.98
2019-05-29T15:16:50.737Z,23.52
2019-05-29T15:19:17.694Z,23.25
2019-05-29T15:21:44.557Z,23.27
2019-05-29T15:24:11.642Z,23.33
2019-05-29T15:26:38.568Z,23.36
2019-05-29T15:29:06.038Z,23.71
2019-05-29T15:31:32.991Z,24.03
2019-05-29T15:34:00.850Z,25.08
2019-05-29T15:36:27.723Z,25.16
2019-05-29T15:38:54.590Z,25.01
2019-05-29T15:41:21.477Z,24.62
2019-05-29T15:43:49.378Z,24.93
2019-05-29T15:46:17.744Z,25.17
2019-05-29T15:48:44.860Z,24.84
2019-05-29T15:51:13.158Z,24.82
2019-05-29T15:53:40.252Z,24.37
2019-05-29T15:56:18.289Z,25.19
2019-05-29T15:58:35.766Z,25.12
2019-05-29T16:01:02.937Z,25.15
2019-05-29T16:03:29.888Z,25.01
2019-05-29T16:05:57.137Z,24.90
2019-05-29T16:08:24.021Z,24.67
2019-05-29T16:10:51.218Z,24.83
2019-05-29T16:13:19.087Z,24.92
2019-05-29T16:15:46.209Z,25.20
2019-05-29T16:18:23.146Z,25.74
2019-05-29T16:20:41.860Z,25.64
2019-05-29T16:23:08.798Z,25.05
2019-05-29T16:25:40.494Z,25.00
2019-05-29T16:28:04.549Z,24.89
2019-05-29T16:30:31.449Z,24.50
2019-05-29T16:32:59.473Z,24.35
2019-05-29T16:35:26.420Z,24.08
2019-05-29T16:37:53.398Z,23.84
2019-05-29T16:40:20.372Z,23.27
2019-05-29T16:42:47.340Z,23.40
2019-05-29T16:45:14.343Z,24.39
2019-05-29T16:47:41.259Z,24.73
2019-05-29T16:50:08.244Z,24.47
2019-05-29T16:52:35.434Z,24.43
2019-05-29T16:55:02.568Z,24.67
2019-05-29T16:57:29.726Z,24.83
2019-05-29T16:59:56.694Z,24.44
2019-05-29T17:02:23.776Z,24.07
2019-05-29T17:04:51.853Z,24.39
2019-05-29T17:07:19.995Z,23.65
2019-05-29T17:09:47.085Z,23.77
2019-05-29T17:12:14.332Z,23.76
2019-05-29T17:14:41.316Z,24.14
2019-05-29T17:17:08.248Z,23.57
2019-05-29T17:19:35.128Z,23.26
2019-05-29T17:22:02.080Z,23.57
2019-05-29T17:24:29.052Z,23.21
2019-05-29T17:26:56.262Z,23.11
2019-05-29T17:29:23.137Z,23.21
2019-05-29T17:31:50.032Z,22.91
2019-05-29T17:34:17.330Z,22.61
2019-05-29T17:36:44.304Z,22.49
2019-05-29T17:39:11.305Z,22.59
2019-05-29T17:41:38.173Z,23.00
2019-05-29T17:44:05.208Z,22.80
2019-05-29T17:46:33.367Z,22.71
2019-05-29T17:49:00.267Z,23.07
2019-05-29T17:51:27.236Z,23.37
2019-05-29T17:53:56.191Z,23.21
2019-05-29T17:56:29.675Z,23.41
2019-05-29T17:58:51.734Z,23.02
2019-05-29T18:01:19.957Z,22.93
2019-05-29T18:03:46.869Z,22.79
2019-05-29T18:06:13.834Z,23.05
2019-05-29T18:08:40.707Z,23.14
2019-05-29T18:11:07.582Z,22.95
2019-05-29T18:13:34.729Z,22.76
2019-05-29T18:16:01.936Z,22.99
2019-05-29T18:18:28.897Z,23.03
2019-05-29T18:20:55.887Z,23.27
2019-05-29T18:23:24.220Z,23.57
2019-05-29T18:25:52.376Z,23.75
2019-05-29T18:28:19.970Z,23.66
2019-05-29T18:30:47.297Z,23.80
2019-05-29T18:33:15.275Z,23.85
2019-05-29T18:35:42.282Z,24.01
2019-05-29T18:38:09.261Z,24.08
2019-05-29T18:40:36.246Z,23.98
2019-05-29T18:43:03.573Z,24.10
2019-05-29T18:45:31.015Z,24.02
2019-05-29T18:47:58.006Z,23.92
2019-05-29T18:50:25.616Z,24.10
2019-05-29T18:52:53.861Z,24.37
2019-05-29T18:55:20.835Z,24.76
2019-05-29T18:57:47.974Z,24.75
2019-05-29T19:00:14.993Z,24.87
2019-05-29T19:02:41.955Z,25.19
2019-05-29T19:05:09.162Z,25.14
2019-05-29T19:07:36.089Z,25.37
2019-05-29T19:10:06.241Z,25.92
2019-05-29T19:12:32.411Z,25.96
2019-05-29T19:14:59.293Z,26.54
2019-05-29T19:17:26.241Z,27.38
2019-05-29T19:19:53.496Z,28.07
2019-05-29T19:22:20.429Z,28.66
2019-05-29T19:24:47.297Z,28.58
2019-05-29T19:27:29.759Z,28.77
2019-05-29T19:29:43.144Z,29.12
2019-05-29T19:32:10.355Z,29.48
2019-05-29T19:34:37.219Z,29.44
2019-05-29T19:37:04.104Z,29.78
2019-05-29T19:39:32.098Z,30.04
2019-05-29T19:41:59.573Z,30.03
2019-05-29T19:44:26.479Z,30.28
2019-05-29T19:46:54.363Z,30.46
2019-05-29T19:49:21.461Z,30.18
2019-05-29T19:51:48.435Z,30.25
2019-05-29T19:54:15.752Z,30.08
2019-05-29T19:56:42.617Z,30.17
2019-05-29T19:59:09.481Z,30.32
2019-05-29T20:01:40.347Z,30.40
2019-05-29T20:04:05.240Z,30.04
2019-05-29T20:06:33.057Z,30.19
2019-05-29T20:09:00.518Z,30.14
2019-05-29T20:11:29.441Z,29.89
2019-05-29T20:13:56.446Z,30.07
2019-05-29T20:16:24.352Z,29.69
2019-05-29T20:18:51.781Z,29.99
2019-05-29T20:21:18.668Z,30.02
2019-05-29T20:23:45.708Z,30.42
2019-05-29T20:26:14.025Z,30.65
2019-05-29T20:28:40.903Z,30.11
2019-05-29T20:31:11.570Z,29.84
2019-05-29T20:33:36.665Z,30.05
2019-05-29T20:36:03.633Z,30.00
2019-05-29T20:38:30.952Z,30.26
2019-05-29T20:40:58.449Z,30.16
2019-05-29T20:43:25.410Z,30.28
2019-05-29T20:45:53.362Z,30.23
2019-05-29T20:48:20.384Z,29.79
2019-05-29T20:50:48.594Z,29.93
2019-05-29T20:53:15.516Z,30.30
2019-05-29T20:55:42.448Z,30.38
2019-05-29T20:58:23.612Z,30.33
2019-05-29T21:00:38.425Z,30.46
2019-05-29T21:03:05.480Z,30.47
2019-05-29T21:05:32.516Z,30.50
2019-05-29T21:07:59.774Z,30.52
2019-05-29T21:10:26.936Z,30.48
2019-05-29T21:12:54.185Z,30.52
2019-05-29T21:15:21.129Z,30.68
2019-05-29T21:17:48.106Z,30.87
2019-05-29T21:20:14.992Z,30.95
2019-05-29T21:22:42.920Z,30.97
2019-05-29T21:25:14.754Z,30.87
2019-05-29T21:27:42.982Z,30.76
2019-05-29T21:30:08.025Z,30.76
2019-05-29T21:32:35.728Z,30.79
2019-05-29T21:35:02.778Z,30.62
2019-05-29T21:37:29.762Z,30.62
2019-05-29T21:39:57.096Z,30.54
2019-05-29T21:42:24.420Z,30.46
2019-05-29T21:44:51.333Z,30.54
2019-05-29T21:47:18.270Z,30.72
2019-05-29T21:49:45.288Z,30.62
2019-05-29T21:52:12.698Z,30.53
2019-05-29T21:54:39.650Z,30.35
2019-05-29T21:57:06.517Z,30.67
2019-05-29T21:59:33.417Z,30.54
2019-05-29T22:02:00.293Z,30.46
2019-05-29T22:04:27.531Z,30.43
2019-05-29T22:06:54.485Z,30.56
2019-05-29T22:09:21.379Z,30.71
2019-05-29T22:11:48.559Z,30.32
2019-05-29T22:14:15.457Z,30.40
2019-05-29T22:16:42.442Z,30.27
2019-05-29T22:19:09.397Z,30.25
2019-05-29T22:21:36.347Z,30.11
2019-05-29T22:24:03.213Z,30.27
2019-05-29T22:26:30.106Z,30.77
2019-05-29T22:28:57.344Z,30.76
2019-05-29T22:31:25.987Z,30.62
2019-05-29T22:33:53.429Z,30.58
2019-05-29T22:36:20.485Z,30.89
2019-05-29T22:38:47.429Z,30.84
2019-05-29T22:41:14.299Z,30.78
2019-05-29T22:43:41.264Z,30.62
2019-05-29T22:46:08.568Z,30.94
2019-05-29T22:48:35.707Z,30.94
2019-05-29T22:51:02.582Z,30.87
2019-05-29T22:53:29.475Z,31.04
2019-05-29T22:55:56.436Z,31.19
2019-05-29T22:58:23.320Z,31.17
2019-05-29T23:00:50.220Z,30.80
2019-05-29T23:03:17.222Z,30.84
2019-05-29T23:05:44.551Z,30.91
2019-05-29T23:08:11.524Z,31.26
2019-05-29T23:10:38.496Z,31.33
2019-05-29T23:13:06.056Z,31.15
2019-05-29T23:15:33.193Z,31.07
2019-05-29T23:18:00.679Z,31.21
2019-05-29T23:20:27.709Z,31.34
2019-05-29T23:22:54.605Z,31.24
2019-05-29T23:25:21.575Z,31.28
2019-05-29T23:27:48.521Z,31.40
2019-05-29T23:30:15.431Z,31.71
2019-05-29T23:32:42.368Z,32.09
2019-05-29T23:35:10.301Z,32.16
2019-05-29T23:37:37.170Z,32.18
2019-05-29T23:40:04.333Z,32.22
2019-05-29T23:42:31.220Z,32.25
2019-05-29T23:44:59.361Z,32.21
2019-05-29T23:47:26.461Z,32.35
2019-05-29T23:49:53.543Z,32.36
2019-05-29T23:52:20.600Z,32.35
2019-05-29T23:54:47.856Z,32.31
2019-05-29T23:57:14.751Z,32.19
2019-05-29T23:59:41.717Z,32.21
